createdAt,value
2018-04-08T00:00:58.496Z,8.93
2018-04-08T00:03:26.421Z,9.13
2018-04-08T00:05:53.869Z,9.73
2018-04-08T00:08:21.391Z,9.03
2018-04-08T00:10:49.244Z,9.40
2018-04-08T00:13:16.683Z,8.77
2018-04-08T00:15:44.528Z,9.27
2018-04-08T00:18:11.982Z,7.83
2018-04-08T00:20:39.979Z,9.10
2018-04-08T00:23:10.833Z,8.70
2018-04-08T00:25:38.828Z,8.00
2018-04-08T00:28:06.391Z,7.80
2018-04-08T00:30:33.850Z,8.50
2018-04-08T00:33:02.312Z,8.37
2018-04-08T00:35:30.555Z,7.37
2018-04-08T00:38:13.711Z,7.93
2018-04-08T00:40:41.168Z,8.27
2018-04-08T00:43:08.710Z,7.60
2018-04-08T00:45:36.159Z,8.23
2018-04-08T00:48:03.602Z,7.37
2018-04-08T00:50:31.153Z,7.47
2018-04-08T00:52:58.607Z,7.43
2018-04-08T00:55:26.067Z,8.07
2018-04-08T00:57:54.288Z,7.90
2018-04-08T12:30:20.955Z,8.97
2018-04-08T12:32:49.493Z,8.00
2018-04-08T12:35:16.955Z,8.50
2018-04-08T12:37:44.422Z,8.10
2018-04-08T12:40:40.571Z,9.17
2018-04-08T12:43:08.932Z,10.63
2018-04-08T12:45:36.426Z,11.20
2018-04-08T12:48:11.131Z,10.83
2018-04-08T12:50:39.465Z,10.23
2018-04-08T12:53:11.447Z,11.23
2018-04-08T12:55:38.930Z,11.57
2018-04-08T13:01:12.867Z,10.60
2018-04-08T13:03:40.996Z,9.27
2018-04-08T13:06:08.487Z,10.17
2018-04-08T13:08:35.979Z,9.70
2018-04-08T13:14:11.284Z,9.23
2018-04-08T13:16:39.119Z,9.70
2018-04-08T13:19:06.587Z,10.00
2018-04-08T13:21:34.045Z,9.60
2018-04-08T13:24:02.633Z,9.73
2018-04-08T13:26:45.975Z,8.40
2018-04-08T13:29:41.108Z,8.60
2018-04-08T13:32:12.048Z,6.93
2018-04-08T13:34:39.643Z,7.50
2018-04-08T13:37:07.889Z,7.87
2018-04-08T13:39:58.950Z,7.33
2018-04-08T13:42:27.313Z,7.57
2018-04-08T13:44:54.767Z,5.50
2018-04-08T13:47:23.118Z,5.70
2018-04-08T13:50:02.180Z,4.27
2018-04-08T13:55:49.047Z,3.30
2018-04-08T13:58:16.502Z,3.23
2018-04-08T14:00:43.947Z,3.27
2018-04-08T14:03:12.248Z,3.50
2018-04-08T14:05:43.233Z,3.73
2018-04-08T14:08:10.765Z,3.70
2018-04-08T14:10:38.259Z,2.97
2018-04-08T14:15:53.215Z,3.90
2018-04-08T14:18:20.791Z,5.37
2018-04-08T14:20:49.324Z,5.50
2018-04-08T14:23:16.827Z,4.90
2018-04-08T14:25:44.746Z,4.70
2018-04-08T14:28:12.302Z,6.50
2018-04-08T14:30:39.918Z,6.00
2018-04-08T14:33:08.422Z,7.40
2018-04-08T14:35:38.732Z,7.43
2018-04-08T14:38:06.985Z,6.90
2018-04-08T14:40:34.446Z,7.77
2018-04-08T14:43:03.425Z,6.90
2018-04-08T14:45:31.308Z,5.47
2018-04-08T14:47:58.871Z,5.20
2018-04-08T14:50:27.262Z,4.73
2018-04-08T14:52:54.781Z,4.10
2018-04-08T14:55:24.850Z,4.40
2018-04-08T14:57:52.322Z,4.30
2018-04-08T15:00:20.585Z,4.60
2018-04-08T15:02:48.059Z,3.53
2018-04-08T15:05:15.591Z,4.60
2018-04-08T15:07:43.039Z,3.80
2018-04-08T15:10:11.376Z,4.83
2018-04-08T15:12:40.729Z,4.53
2018-04-08T15:15:08.694Z,4.20
2018-04-08T15:17:36.303Z,4.63
2018-04-08T15:20:04.339Z,4.60
2018-04-08T15:22:31.842Z,3.90
2018-04-08T15:24:59.348Z,4.27
2018-04-08T15:27:26.866Z,4.53
2018-04-08T15:29:54.354Z,3.83
2018-04-08T15:32:22.216Z,4.57
2018-04-08T15:34:50.508Z,3.17
2018-04-08T15:37:18.102Z,3.87
2018-04-08T15:39:45.654Z,3.90
2018-04-08T15:42:13.952Z,5.03
2018-04-08T15:44:42.197Z,5.00
2018-04-08T15:47:09.716Z,4.37
2018-04-08T15:49:38.526Z,4.03
2018-04-08T15:52:07.645Z,4.40
2018-04-08T15:54:35.098Z,4.40
2018-04-08T15:57:02.573Z,3.57
2018-04-08T15:59:30.135Z,4.57
2018-04-08T16:01:57.689Z,3.40
2018-04-08T16:04:25.610Z,4.40
2018-04-08T16:06:53.135Z,3.30
2018-04-08T16:12:43.510Z,2.87
2018-04-08T16:15:11.899Z,3.27
2018-04-08T16:17:39.774Z,3.10
2018-04-08T16:20:07.333Z,3.83
2018-04-08T16:22:35.680Z,4.17
2018-04-08T16:25:03.628Z,5.17
2018-04-08T16:27:45.015Z,3.97
2018-04-08T16:30:12.946Z,4.10
2018-04-08T16:32:40.550Z,3.37
2018-04-08T16:35:08.156Z,4.20
2018-04-08T16:37:36.038Z,4.87
2018-04-08T16:40:03.734Z,4.33
2018-04-08T16:42:32.005Z,4.17
2018-04-08T16:44:59.538Z,4.50
2018-04-08T16:47:27.750Z,4.43
2018-04-08T16:52:59.715Z,3.60
2018-04-08T16:55:27.941Z,3.20
2018-04-08T16:57:55.462Z,3.57
2018-04-08T17:00:23.814Z,3.13
2018-04-08T17:02:52.514Z,3.00
2018-04-08T17:05:20.758Z,3.27
2018-04-08T17:07:49.251Z,3.47
2018-04-08T17:10:16.896Z,2.73
2018-04-08T17:12:46.038Z,2.90
2018-04-08T17:15:42.084Z,3.87
2018-04-08T17:18:21.165Z,2.83
2018-04-08T17:21:12.950Z,3.30
2018-04-08T17:23:41.172Z,2.93
2018-04-08T17:26:10.568Z,3.57
2018-04-08T17:32:32.105Z,2.80
2018-04-08T17:35:12.464Z,2.20
2018-04-08T17:37:39.935Z,3.43
2018-04-08T17:40:23.824Z,3.93
2018-04-08T17:42:52.500Z,3.03
2018-04-08T17:45:20.065Z,4.23
2018-04-08T17:47:48.382Z,3.73
2018-04-08T17:50:15.928Z,4.47
2018-04-08T17:52:43.538Z,3.30
2018-04-08T17:55:11.879Z,3.80
2018-04-08T17:57:39.327Z,4.30
2018-04-08T18:00:11.656Z,3.03
2018-04-08T18:02:42.423Z,2.80
2018-04-08T18:05:09.967Z,3.40
2018-04-08T18:07:42.245Z,3.13
2018-04-08T18:13:05.460Z,3.63
2018-04-08T18:15:33.376Z,3.70
2018-04-08T18:18:02.818Z,3.13
2018-04-08T18:21:01.317Z,3.10
2018-04-08T18:37:19.110Z,3.43
2018-04-08T18:39:47.756Z,4.27
2018-04-08T18:42:16.132Z,4.03
2018-04-08T18:44:45.301Z,3.67
2018-04-08T18:47:12.931Z,4.70
2018-04-08T18:49:40.868Z,4.20
2018-04-08T18:52:09.238Z,6.03
2018-04-08T18:54:36.945Z,5.40
2018-04-08T18:57:04.440Z,3.87
2018-04-08T18:59:32.680Z,4.07
2018-04-08T19:02:11.774Z,4.87
2018-04-08T19:04:39.368Z,3.63
2018-04-08T19:07:06.939Z,3.90
2018-04-08T19:09:34.467Z,3.40
2018-04-08T19:12:02.734Z,3.77
2018-04-08T19:14:36.619Z,3.87
2018-04-08T19:17:04.112Z,4.07
2018-04-08T19:19:31.985Z,3.50
2018-04-08T19:21:59.510Z,3.70
2018-04-08T19:24:27.062Z,4.23
2018-04-08T19:26:55.706Z,3.80
2018-04-08T19:29:26.873Z,4.00
2018-04-08T19:31:54.343Z,3.70
2018-04-08T19:34:21.809Z,3.93
2018-04-08T19:36:49.261Z,4.80
2018-04-08T19:39:17.751Z,6.90
2018-04-08T19:41:49.081Z,7.23
2018-04-08T19:44:33.193Z,4.50
2018-04-08T19:47:01.414Z,7.37
2018-04-08T19:49:28.885Z,5.23
2018-04-08T19:52:00.316Z,5.33
2018-04-08T19:54:27.816Z,5.90
2018-04-08T19:56:55.272Z,5.83
2018-04-08T19:59:22.732Z,5.60
2018-04-08T20:01:50.240Z,7.90
2018-04-08T20:04:17.742Z,8.20
2018-04-08T20:06:45.383Z,4.93
2018-04-08T20:09:13.737Z,4.70
2018-04-08T20:11:41.279Z,4.50
2018-04-08T20:14:10.228Z,4.67
2018-04-08T20:16:38.496Z,4.33
2018-04-08T20:19:05.984Z,4.13
2018-04-08T20:21:34.240Z,4.37
2018-04-08T20:24:01.741Z,4.53
2018-04-08T20:26:29.975Z,5.10
2018-04-08T20:28:57.599Z,6.00
2018-04-08T20:31:25.440Z,6.30
2018-04-08T20:33:53.821Z,5.50
2018-04-08T20:36:22.236Z,6.60
2018-04-08T20:38:51.349Z,6.00
2018-04-08T20:41:23.182Z,4.97
2018-04-08T20:43:51.687Z,6.10
2018-04-08T20:46:19.679Z,5.90
2018-04-08T20:48:47.624Z,5.83
2018-04-08T20:51:15.868Z,6.67
2018-04-08T20:53:43.335Z,6.23
2018-04-08T20:56:10.860Z,6.63
2018-04-08T20:58:38.343Z,6.73
2018-04-08T21:01:05.799Z,6.13
2018-04-08T21:03:34.698Z,5.30
2018-04-08T21:06:02.160Z,6.30
2018-04-08T21:08:29.612Z,5.87
2018-04-08T21:10:57.062Z,5.70
2018-04-08T21:13:24.528Z,6.50
2018-04-08T21:15:52.021Z,6.87
2018-04-08T21:18:19.610Z,5.77
2018-04-08T21:20:47.284Z,4.90
2018-04-08T21:23:14.744Z,5.67
2018-04-08T21:25:42.191Z,5.07
2018-04-08T21:28:09.655Z,5.20
2018-04-08T21:30:37.106Z,5.07
2018-04-08T21:33:04.582Z,5.13
2018-04-08T21:35:32.024Z,5.50
2018-04-08T21:37:59.492Z,4.77
2018-04-08T21:40:26.943Z,5.60
2018-04-08T21:42:55.249Z,4.93
2018-04-08T21:45:22.694Z,5.70
2018-04-08T21:47:50.954Z,5.10
2018-04-08T21:50:18.817Z,5.10
2018-04-08T21:52:46.274Z,5.60
2018-04-08T21:55:13.733Z,5.73
2018-04-08T21:57:41.174Z,5.80
2018-04-08T22:00:08.625Z,5.53
2018-04-08T22:02:37.026Z,5.77
2018-04-08T22:05:05.409Z,6.13
2018-04-08T22:07:32.943Z,6.40
2018-04-08T22:10:00.439Z,5.90
2018-04-08T22:12:28.044Z,6.20
2018-04-08T22:14:55.602Z,5.57
2018-04-08T22:17:23.373Z,6.93
2018-04-08T22:19:51.002Z,5.93
2018-04-08T22:22:19.329Z,5.70
2018-04-08T22:24:47.558Z,7.70
2018-04-08T22:27:15.008Z,7.10
2018-04-08T22:29:42.487Z,5.80
2018-04-08T22:32:10.332Z,7.47
2018-04-08T22:34:37.810Z,6.50
2018-04-08T22:37:05.674Z,5.80
2018-04-08T22:39:33.903Z,5.57
2018-04-08T22:42:01.384Z,5.20
2018-04-08T22:44:29.611Z,5.53
2018-04-08T22:46:57.855Z,5.40
2018-04-08T22:49:25.346Z,4.50
2018-04-08T22:51:52.793Z,5.00
2018-04-08T22:54:21.040Z,5.40
2018-04-08T22:56:48.497Z,5.20
